Time;durP1;ratioP1;P1;durP2;ratioP2;P2;SDS_P1;SDS_P2;PMS_P1;PMS_P2;Temp;Humidity;BMP_temperature;BMP_pressure;BME280_temperature;BME280_humidity;BME280_pressure;Samples;Min_cycle;Max_cycle;Signal;HPM_P1;HPM_P2
2021/04/09 00:00:26;;;;;;;11.05;7.13;;;6.20;59.70;;;;;;5003198;28;20026;-61
2021/04/09 00:02:52;;;;;;;8.50;7.00;;;6.20;59.20;;;;;;5000750;28;20023;-62
2021/04/09 00:05:21;;;;;;;9.27;7.22;;;6.20;59.30;;;;;;4995137;28;20033;-61
2021/04/09 00:07:49;;;;;;;9.25;6.80;;;6.20;59.20;;;;;;5003982;28;20069;-61
2021/04/09 00:10:25;;;;;;;10.68;7.32;;;6.20;59.20;;;;;;4999410;28;20054;-60
2021/04/09 00:12:51;;;;;;;9.02;6.38;;;6.20;59.40;;;;;;4996723;28;20042;-61
2021/04/09 00:15:17;;;;;;;9.65;6.90;;;6.20;59.40;;;;;;4998146;28;20026;-61
2021/04/09 00:17:43;;;;;;;7.85;6.80;;;6.20;59.20;;;;;;5001486;28;20034;-62
2021/04/09 00:20:13;;;;;;;10.95;7.05;;;6.20;59.30;;;;;;4999589;28;20061;-61
2021/04/09 00:22:39;;;;;;;8.77;6.18;;;6.20;59.30;;;;;;4996161;28;20058;-61
2021/04/09 00:25:07;;;;;;;9.00;6.47;;;6.20;59.50;;;;;;4995937;28;20065;-61
2021/04/09 00:27:32;;;;;;;9.52;7.13;;;6.20;59.30;;;;;;4994881;28;20042;-61
2021/04/09 00:29:58;;;;;;;10.45;6.63;;;6.20;59.30;;;;;;4998443;28;20064;-62
2021/04/09 00:32:24;;;;;;;7.65;5.63;;;6.20;59.30;;;;;;4996562;28;20471;-61
2021/04/09 00:34:49;;;;;;;9.45;6.28;;;6.20;59.20;;;;;;4996632;28;20058;-61
2021/04/09 00:37:15;;;;;;;7.53;6.30;;;6.20;59.20;;;;;;4994005;28;20421;-61
2021/04/09 00:39:40;;;;;;;9.43;6.70;;;6.10;59.30;;;;;;5004250;28;20053;-61
2021/04/09 00:42:06;;;;;;;9.15;6.82;;;6.20;59.40;;;;;;5004015;28;20056;-60
2021/04/09 00:44:32;;;;;;;9.93;6.70;;;6.10;59.30;;;;;;4994742;28;20101;-61
2021/04/09 00:46:58;;;;;;;9.35;5.90;;;6.10;59.40;;;;;;4996878;28;20355;-61
2021/04/09 00:49:24;;;;;;;9.70;6.78;;;6.10;59.40;;;;;;5004302;28;20074;-61
2021/04/09 00:51:49;;;;;;;8.20;6.20;;;6.10;59.50;;;;;;5003459;28;20046;-61
2021/04/09 00:54:15;;;;;;;8.77;6.18;;;6.10;59.30;;;;;;5005190;28;20029;-61
2021/04/09 00:56:42;;;;;;;9.43;6.68;;;6.10;59.40;;;;;;4996988;28;20038;-62
2021/04/09 00:59:07;;;;;;;12.02;6.85;;;6.10;59.30;;;;;;4995870;28;20027;-61
2021/04/09 01:01:33;;;;;;;8.75;6.45;;;6.10;59.30;;;;;;4995438;28;20372;-61
2021/04/09 01:04:00;;;;;;;9.13;7.13;;;6.10;59.30;;;;;;5003953;28;20032;-61
2021/04/09 01:06:26;;;;;;;9.40;6.90;;;6.10;59.30;;;;;;5002745;28;20017;-61
2021/04/09 01:08:52;;;;;;;9.68;6.65;;;6.10;59.40;;;;;;4997550;28;20041;-60
2021/04/09 01:11:18;;;;;;;9.63;6.32;;;6.10;59.40;;;;;;4994457;28;20030;-62
2021/04/09 01:13:45;;;;;;;9.52;6.60;;;6.10;59.50;;;;;;5007121;28;20054;-62
2021/04/09 01:16:21;;;;;;;8.52;6.35;;;6.10;59.40;;;;;;5000827;28;20045;-61
2021/04/09 01:19:13;;;;;;;8.18;6.30;;;6.10;59.30;;;;;;4996113;28;20029;-61
2021/04/09 01:21:48;;;;;;;9.65;6.25;;;6.10;59.40;;;;;;4997047;28;20038;-61
2021/04/09 01:24:28;;;;;;;8.98;6.85;;;6.10;59.50;;;;;;4999027;28;20037;-61
2021/04/09 01:27:13;;;;;;;9.35;6.20;;;6.10;59.60;;;;;;4993839;28;20025;-60
2021/04/09 01:29:48;;;;;;;8.43;6.53;;;6.10;59.50;;;;;;4995678;28;20030;-62
2021/04/09 01:32:14;;;;;;;9.80;6.50;;;6.00;59.60;;;;;;4990876;28;20654;-61
2021/04/09 01:34:43;;;;;;;10.07;6.80;;;6.00;59.50;;;;;;4999497;28;20044;-62
2021/04/09 01:37:28;;;;;;;8.27;6.35;;;6.10;59.50;;;;;;4997509;28;20113;-62
2021/04/09 01:40:17;;;;;;;9.77;6.78;;;6.10;59.30;;;;;;4996669;28;20141;-61
2021/04/09 01:42:47;;;;;;;10.27;6.70;;;6.10;59.60;;;;;;4989853;28;20383;-61
2021/04/09 01:45:15;;;;;;;8.70;7.00;;;6.00;59.50;;;;;;4993757;28;20030;-61
2021/04/09 01:47:42;;;;;;;8.10;6.03;;;6.00;59.40;;;;;;5000137;28;20124;-61
2021/04/09 01:50:15;;;;;;;9.52;6.70;;;6.00;59.40;;;;;;4999568;28;20072;-61
2021/04/09 01:52:43;;;;;;;9.38;7.00;;;6.00;59.50;;;;;;5000289;28;20580;-61
2021/04/09 01:55:11;;;;;;;9.82;7.28;;;6.00;59.50;;;;;;4996552;28;20459;-61
2021/04/09 01:57:40;;;;;;;9.93;6.97;;;6.00;59.50;;;;;;4994754;28;20019;-60
2021/04/09 02:00:09;;;;;;;10.50;7.10;;;6.00;59.50;;;;;;4999141;28;20014;-61
2021/04/09 02:02:37;;;;;;;10.05;7.10;;;6.00;59.50;;;;;;5003383;28;20038;-61
2021/04/09 02:05:04;;;;;;;9.80;6.78;;;6.00;59.60;;;;;;4997615;28;20028;-61
2021/04/09 02:07:31;;;;;;;9.18;7.35;;;6.00;59.50;;;;;;4998407;28;20490;-61
2021/04/09 02:09:59;;;;;;;11.10;7.22;;;6.00;59.50;;;;;;4992197;28;20017;-61
2021/04/09 02:12:27;;;;;;;11.65;7.15;;;6.00;59.50;;;;;;5001074;28;20057;-61
2021/04/09 02:14:56;;;;;;;10.40;7.00;;;6.00;59.70;;;;;;5003413;28;20041;-61
2021/04/09 02:17:22;;;;;;;9.82;7.20;;;6.00;59.70;;;;;;4997044;28;20479;-61
2021/04/09 02:19:48;;;;;;;9.90;6.65;;;5.90;59.60;;;;;;4997533;28;20105;-61
2021/04/09 02:22:14;;;;;;;9.15;6.20;;;5.90;59.90;;;;;;4993968;28;20105;-61
2021/04/09 02:24:39;;;;;;;9.85;6.32;;;5.90;59.60;;;;;;4998483;28;20022;-61
2021/04/09 02:27:06;;;;;;;10.32;7.28;;;5.90;59.70;;;;;;4996163;28;20470;-61
2021/04/09 02:29:32;;;;;;;11.10;7.20;;;5.80;59.80;;;;;;4995575;28;20022;-60
2021/04/09 02:31:58;;;;;;;9.43;6.85;;;5.80;60.10;;;;;;4999422;28;20041;-61
2021/04/09 02:34:25;;;;;;;9.65;7.53;;;5.80;60.00;;;;;;5000910;28;20056;-61
2021/04/09 02:36:51;;;;;;;10.93;7.45;;;5.80;60.00;;;;;;4995562;28;20057;-61
2021/04/09 02:39:20;;;;;;;9.50;6.47;;;5.80;60.00;;;;;;4995267;28;20106;-62
2021/04/09 02:41:57;;;;;;;9.90;6.90;;;5.80;60.00;;;;;;5001513;28;20027;-61
2021/04/09 02:44:23;;;;;;;10.68;7.20;;;5.80;59.90;;;;;;4988554;28;20398;-61
2021/04/09 02:46:54;;;;;;;10.27;7.20;;;5.80;59.90;;;;;;4989958;28;20073;-61
2021/04/09 02:49:45;;;;;;;11.07;8.23;;;5.80;59.90;;;;;;4995015;28;20061;-62
2021/04/09 02:52:28;;;;;;;9.68;6.38;;;5.80;60.00;;;;;;4992729;28;20073;-62
2021/04/09 02:54:58;;;;;;;9.50;6.88;;;5.80;60.00;;;;;;4994005;28;20069;-61
2021/04/09 02:57:26;;;;;;;9.30;6.68;;;5.80;60.00;;;;;;4993225;28;20026;-61
2021/04/09 02:59:54;;;;;;;9.35;7.38;;;5.70;60.00;;;;;;4996902;28;20022;-61
2021/04/09 03:02:21;;;;;;;11.50;7.57;;;5.80;60.00;;;;;;5005819;28;20026;-61
2021/04/09 03:04:48;;;;;;;12.77;7.45;;;5.80;60.00;;;;;;4994052;28;20049;-62
2021/04/09 03:07:15;;;;;;;10.68;8.05;;;5.70;60.00;;;;;;4998608;28;20027;-61
2021/04/09 03:09:41;;;;;;;11.85;7.45;;;5.70;60.20;;;;;;4995352;28;20118;-61
2021/04/09 03:12:18;;;;;;;10.50;7.28;;;5.60;60.30;;;;;;4996675;28;20426;-61
2021/04/09 03:14:45;;;;;;;12.05;8.07;;;5.60;60.60;;;;;;5004676;28;20413;-62
2021/04/09 03:17:18;;;;;;;11.52;7.97;;;5.60;60.70;;;;;;4998012;28;20519;-62
2021/04/09 03:19:43;;;;;;;10.13;7.47;;;5.60;60.60;;;;;;4999256;28;20053;-61
2021/04/09 03:22:11;;;;;;;10.50;7.88;;;5.60;60.70;;;;;;4997775;28;20057;-61
2021/04/09 03:24:37;;;;;;;11.77;7.32;;;5.60;60.80;;;;;;5003816;28;20014;-61
2021/04/09 03:27:14;;;;;;;12.80;8.38;;;5.70;60.80;;;;;;4997445;28;20015;-61
2021/04/09 03:29:40;;;;;;;10.07;7.57;;;5.70;60.80;;;;;;4997679;28;20035;-61
2021/04/09 03:32:06;;;;;;;10.20;7.10;;;5.70;60.70;;;;;;4998142;28;20054;-61
2021/04/09 03:34:32;;;;;;;9.73;7.45;;;5.70;61.30;;;;;;4997789;28;20040;-62
2021/04/09 03:36:57;;;;;;;8.55;6.57;;;5.80;60.70;;;;;;5000655;28;20022;-61
2021/04/09 03:39:23;;;;;;;12.02;8.13;;;5.80;60.50;;;;;;4997622;28;20463;-61
2021/04/09 03:41:50;;;;;;;11.32;8.52;;;5.80;60.60;;;;;;5003964;28;20031;-61
2021/04/09 03:44:16;;;;;;;11.35;8.48;;;5.80;60.60;;;;;;4995992;28;20113;-62
2021/04/09 03:46:41;;;;;;;12.93;9.48;;;5.80;60.60;;;;;;4999950;28;20449;-62
2021/04/09 03:49:07;;;;;;;15.07;9.95;;;5.80;60.80;;;;;;4997508;28;20364;-62
2021/04/09 03:51:34;;;;;;;12.02;8.63;;;5.80;60.90;;;;;;5002696;28;20046;-62
2021/04/09 03:54:00;;;;;;;11.98;9.27;;;5.80;60.80;;;;;;5003583;28;20068;-62
2021/04/09 03:56:25;;;;;;;13.10;8.35;;;5.90;61.10;;;;;;4993468;28;20026;-61
2021/04/09 03:58:51;;;;;;;12.93;8.93;;;5.90;60.70;;;;;;4997173;28;20089;-61
2021/04/09 04:01:17;;;;;;;12.77;9.68;;;6.00;60.80;;;;;;4997929;28;20033;-62
2021/04/09 04:03:46;;;;;;;11.93;8.85;;;6.00;60.80;;;;;;5004387;28;20033;-62
2021/04/09 04:06:12;;;;;;;12.93;8.07;;;6.10;60.90;;;;;;5003267;28;20021;-61
2021/04/09 04:08:37;;;;;;;12.50;8.25;;;6.10;60.90;;;;;;4998121;28;20793;-60
2021/04/09 04:11:03;;;;;;;13.70;8.82;;;6.20;61.10;;;;;;4996676;28;20029;-61
2021/04/09 04:13:28;;;;;;;14.80;9.07;;;6.30;61.20;;;;;;5005324;28;20065;-61
2021/04/09 04:15:54;;;;;;;13.13;9.38;;;6.40;61.00;;;;;;5003632;28;20034;-62
2021/04/09 04:18:20;;;;;;;12.43;8.65;;;6.50;61.40;;;;;;5000713;28;20023;-62
2021/04/09 04:20:46;;;;;;;12.18;8.63;;;6.60;61.60;;;;;;4998129;28;20062;-62
2021/04/09 04:23:12;;;;;;;14.02;8.55;;;6.80;61.60;;;;;;4995740;28;20019;-62
2021/04/09 04:25:37;;;;;;;12.02;8.55;;;6.90;61.30;;;;;;5003247;28;20090;-62
2021/04/09 04:28:03;;;;;;;13.20;8.85;;;7.10;61.00;;;;;;4999742;28;20015;-62
2021/04/09 04:30:29;;;;;;;13.23;9.00;;;7.20;60.80;;;;;;4998901;28;20023;-62
2021/04/09 04:32:54;;;;;;;13.75;10.00;;;7.40;60.40;;;;;;4997006;28;20057;-62
2021/04/09 04:35:20;;;;;;;14.63;9.95;;;7.50;60.00;;;;;;4999440;28;20030;-62
2021/04/09 04:37:46;;;;;;;14.20;10.07;;;7.70;60.00;;;;;;4998522;28;20037;-62
2021/04/09 04:40:12;;;;;;;13.48;9.38;;;7.90;59.80;;;;;;4999356;28;20030;-62
2021/04/09 04:42:37;;;;;;;13.50;9.63;;;8.10;59.20;;;;;;4998997;28;20506;-62
2021/04/09 04:45:05;;;;;;;14.38;9.77;;;8.30;58.80;;;;;;4996541;28;20030;-62
2021/04/09 04:47:30;;;;;;;14.13;10.50;;;8.50;58.60;;;;;;4997470;28;20033;-61
2021/04/09 04:49:56;;;;;;;16.65;10.68;;;8.80;58.60;;;;;;5008521;28;20362;-62
2021/04/09 04:52:22;;;;;;;12.88;9.75;;;9.40;59.10;;;;;;5003182;28;20070;-62
2021/04/09 04:54:47;;;;;;;15.27;10.07;;;10.20;58.40;;;;;;4997495;28;20026;-62
2021/04/09 04:57:13;;;;;;;16.77;11.45;;;11.00;57.30;;;;;;4995212;28;20455;-62
2021/04/09 04:59:39;;;;;;;14.77;10.38;;;11.80;55.80;;;;;;5004794;28;20451;-62
2021/04/09 05:02:04;;;;;;;14.57;10.25;;;12.40;54.40;;;;;;4995590;28;20026;-62
2021/04/09 05:04:30;;;;;;;13.32;10.10;;;12.80;53.40;;;;;;4988824;28;20030;-62
2021/04/09 05:06:56;;;;;;;14.13;9.85;;;13.10;52.80;;;;;;4987449;28;20034;-62
2021/04/09 05:09:21;;;;;;;12.25;9.88;;;13.40;52.40;;;;;;4989659;28;20026;-62
2021/04/09 05:11:47;;;;;;;13.63;10.23;;;13.80;51.80;;;;;;4994198;28;20026;-62
2021/04/09 05:14:13;;;;;;;16.08;9.52;;;14.10;50.70;;;;;;4993242;28;20065;-62
2021/04/09 05:16:38;;;;;;;11.63;9.60;;;14.30;50.40;;;;;;4993582;28;20046;-62
2021/04/09 05:19:04;;;;;;;12.30;9.25;;;14.50;50.20;;;;;;4996852;28;20038;-62
2021/04/09 05:21:30;;;;;;;11.50;8.32;;;14.70;49.60;;;;;;4996101;28;20112;-62
2021/04/09 05:23:56;;;;;;;11.07;8.32;;;15.00;49.40;;;;;;4998656;28;20026;-62
2021/04/09 05:26:22;;;;;;;11.60;8.95;;;15.30;48.80;;;;;;4995222;28;20049;-63
2021/04/09 05:28:47;;;;;;;12.40;9.30;;;15.60;48.30;;;;;;4994296;28;20122;-63
2021/04/09 05:31:13;;;;;;;12.68;9.35;;;15.80;48.00;;;;;;4992645;28;20034;-63
2021/04/09 05:33:39;;;;;;;11.98;9.85;;;15.90;47.40;;;;;;4990636;28;20106;-61
2021/04/09 05:36:05;;;;;;;10.55;8.27;;;15.90;47.20;;;;;;4995318;28;20069;-61
2021/04/09 05:38:31;;;;;;;9.90;7.75;;;16.00;47.30;;;;;;4986801;28;20026;-61
2021/04/09 05:40:56;;;;;;;11.45;8.50;;;16.10;47.00;;;;;;4994287;28;20405;-60
2021/04/09 05:43:22;;;;;;;12.15;8.82;;;16.40;46.80;;;;;;4984506;28;20034;-60
2021/04/09 05:45:48;;;;;;;11.70;9.15;;;16.70;47.00;;;;;;4978447;28;20026;-59
2021/04/09 05:48:14;;;;;;;12.23;9.88;;;17.00;45.60;;;;;;4985800;28;20292;-58
2021/04/09 05:50:39;;;;;;;11.68;9.73;;;17.20;44.20;;;;;;4985119;28;20502;-59
2021/04/09 05:53:05;;;;;;;13.05;8.77;;;17.20;43.50;;;;;;4987585;28;20056;-58
2021/04/09 05:55:31;;;;;;;12.65;9.00;;;16.80;43.60;;;;;;4984954;28;20039;-58
2021/04/09 05:57:57;;;;;;;10.93;8.52;;;16.30;44.00;;;;;;4986713;28;20032;-58
2021/04/09 06:00:23;;;;;;;10.88;7.50;;;15.70;45.00;;;;;;4981935;28;20042;-58
2021/04/09 06:02:49;;;;;;;9.05;7.05;;;15.00;45.50;;;;;;4981788;28;20151;-56
2021/04/09 06:05:15;;;;;;;8.35;7.25;;;14.40;46.30;;;;;;4986999;28;20576;-55
2021/04/09 06:07:41;;;;;;;9.25;7.20;;;13.90;47.00;;;;;;4983460;28;20058;-57
2021/04/09 06:10:07;;;;;;;9.95;7.68;;;13.40;47.50;;;;;;4987922;28;20072;-58
2021/04/09 06:12:33;;;;;;;10.73;8.10;;;13.00;48.20;;;;;;4971548;28;20553;-58
2021/04/09 06:14:59;;;;;;;11.55;8.38;;;12.70;48.90;;;;;;4982799;28;20383;-54
2021/04/09 06:17:25;;;;;;;10.48;7.63;;;12.40;49.40;;;;;;4988838;28;20049;-56
2021/04/09 06:19:51;;;;;;;8.85;7.82;;;12.10;49.90;;;;;;4987843;28;20478;-57
2021/04/09 06:22:17;;;;;;;10.85;8.35;;;11.90;50.20;;;;;;4987602;28;20125;-56
2021/04/09 06:24:43;;;;;;;13.68;8.60;;;11.70;50.60;;;;;;4984023;28;20034;-56
2021/04/09 06:27:09;;;;;;;11.32;8.48;;;11.60;51.00;;;;;;4978798;28;20030;-55
2021/04/09 06:29:36;;;;;;;11.80;8.02;;;11.40;51.20;;;;;;4981186;28;20077;-57
2021/04/09 06:32:02;;;;;;;11.10;7.82;;;11.40;51.60;;;;;;4976991;28;20076;-57
2021/04/09 06:34:28;;;;;;;9.45;7.80;;;11.30;51.80;;;;;;4981123;28;20053;-57
2021/04/09 06:36:53;;;;;;;11.45;7.68;;;11.20;51.90;;;;;;4979796;28;20030;-56
2021/04/09 06:39:19;;;;;;;8.65;7.75;;;11.10;52.00;;;;;;4981578;28;20541;-53
2021/04/09 06:41:45;;;;;;;12.02;7.95;;;11.10;52.40;;;;;;4985984;28;20031;-54
2021/04/09 06:44:11;;;;;;;9.80;8.13;;;11.00;52.70;;;;;;4976777;28;20048;-57
2021/04/09 06:46:39;;;;;;;10.68;7.43;;;11.00;52.80;;;;;;4984118;28;20474;-56
2021/04/09 06:49:05;;;;;;;9.50;8.07;;;10.90;53.10;;;;;;4981425;28;20636;-56
2021/04/09 06:51:31;;;;;;;9.63;7.90;;;10.90;53.10;;;;;;4985406;28;20057;-56
2021/04/09 06:53:58;;;;;;;10.77;8.77;;;10.90;53.40;;;;;;4982471;28;20499;-57
2021/04/09 06:56:25;;;;;;;10.70;8.13;;;10.80;53.60;;;;;;4982021;28;20489;-57
2021/04/09 06:58:52;;;;;;;9.88;8.20;;;10.80;53.40;;;;;;4983162;28;20035;-57
2021/04/09 07:01:20;;;;;;;10.07;8.05;;;10.80;53.60;;;;;;4982768;28;20627;-57
2021/04/09 07:03:45;;;;;;;9.15;8.05;;;10.80;53.70;;;;;;4981768;28;20034;-56
2021/04/09 07:06:11;;;;;;;11.80;8.35;;;10.70;53.60;;;;;;4984463;28;20027;-57
2021/04/09 07:08:41;;;;;;;9.75;7.70;;;10.70;53.70;;;;;;4985332;28;20030;-57
2021/04/09 07:11:08;;;;;;;10.10;8.02;;;10.70;53.80;;;;;;4983207;28;20026;-55
2021/04/09 07:13:45;;;;;;;10.52;8.23;;;10.70;54.00;;;;;;4988797;28;20455;-56
2021/04/09 07:16:11;;;;;;;11.27;8.35;;;10.70;54.20;;;;;;4983433;28;20031;-56
2021/04/09 07:19:04;;;;;;;12.30;8.68;;;10.70;54.40;;;;;;4984421;28;20030;-58
2021/04/09 07:21:29;;;;;;;10.80;8.60;;;10.70;54.40;;;;;;4986060;28;20996;-55
2021/04/09 07:24:13;;;;;;;11.90;8.88;;;10.70;54.60;;;;;;4980403;28;20022;-57
2021/04/09 07:26:45;;;;;;;10.50;8.38;;;10.60;54.80;;;;;;4980188;28;20072;-56
2021/04/09 07:29:34;;;;;;;10.38;8.25;;;10.60;54.80;;;;;;4983204;28;20066;-57
2021/04/09 07:32:14;;;;;;;11.18;7.95;;;10.70;55.00;;;;;;4985617;28;20402;-56
2021/04/09 07:35:04;;;;;;;9.90;8.23;;;10.60;54.80;;;;;;4979803;28;20105;-58
2021/04/09 07:37:31;;;;;;;9.35;8.25;;;10.60;54.80;;;;;;4980242;28;20034;-57
2021/04/09 07:40:03;;;;;;;9.90;7.85;;;10.60;55.00;;;;;;4983716;28;20038;-57
2021/04/09 07:42:35;;;;;;;11.57;8.73;;;10.60;55.00;;;;;;4980531;28;20418;-56
2021/04/09 07:45:04;;;;;;;9.85;7.35;;;10.60;55.10;;;;;;4984433;28;20039;-57
2021/04/09 07:47:29;;;;;;;10.70;8.10;;;10.60;55.10;;;;;;4985783;28;20583;-57
2021/04/09 07:50:00;;;;;;;10.57;8.65;;;10.60;55.10;;;;;;4988994;28;20144;-57
2021/04/09 07:52:48;;;;;;;11.35;9.18;;;10.60;55.10;;;;;;4983222;28;20061;-55
2021/04/09 07:55:18;;;;;;;11.82;8.73;;;10.60;55.10;;;;;;4981003;28;20030;-57
2021/04/09 07:57:45;;;;;;;11.65;8.27;;;10.60;55.10;;;;;;4978440;28;20036;-55
2021/04/09 08:00:37;;;;;;;10.55;8.73;;;10.50;55.10;;;;;;4981557;28;20701;-58
2021/04/09 08:03:03;;;;;;;;;;;10.50;54.90;;;;;;4985612;28;20406;-58
2021/04/09 08:05:28;;;;;;;10.73;8.43;;;10.40;55.10;;;;;;4979986;28;19910;-57
2021/04/09 08:07:54;;;;;;;11.82;8.88;;;10.40;55.20;;;;;;4979245;28;20033;-58
2021/04/09 08:10:33;;;;;;;10.98;9.15;;;10.40;55.30;;;;;;4979145;28;20043;-58
2021/04/09 08:13:01;;;;;;;14.50;10.25;;;10.40;55.40;;;;;;4979881;28;20030;-58
2021/04/09 08:15:27;;;;;;;14.27;9.73;;;10.40;55.40;;;;;;4977830;28;20114;-58
2021/04/09 08:18:08;;;;;;;16.33;10.63;;;10.40;55.40;;;;;;4976456;28;20068;-57
2021/04/09 08:20:37;;;;;;;13.50;10.85;;;10.40;55.40;;;;;;4977972;28;20057;-57
2021/04/09 08:23:09;;;;;;;16.83;11.93;;;10.30;55.60;;;;;;4980467;28;20038;-57
2021/04/09 08:25:38;;;;;;;13.65;11.48;;;10.30;55.60;;;;;;4985054;28;20035;-55
2021/04/09 08:28:06;;;;;;;12.80;9.40;;;10.30;55.90;;;;;;4981348;28;20311;-56
2021/04/09 08:30:32;;;;;;;10.60;8.52;;;10.30;55.90;;;;;;4983321;28;20125;-57
2021/04/09 08:32:59;;;;;;;10.75;8.95;;;10.30;55.90;;;;;;4975060;28;20026;-56
2021/04/09 08:35:26;;;;;;;10.50;8.57;;;10.30;56.20;;;;;;4978240;28;20826;-58
2021/04/09 08:37:52;;;;;;;10.40;9.18;;;10.30;56.30;;;;;;4968252;28;20049;-56
2021/04/09 08:40:20;;;;;;;10.15;8.13;;;10.30;56.30;;;;;;4973942;28;20030;-57
2021/04/09 08:42:46;;;;;;;11.07;8.68;;;10.20;56.40;;;;;;4975358;28;20058;-53
2021/04/09 08:45:13;;;;;;;11.00;8.88;;;10.20;56.30;;;;;;4985708;28;20037;-55
2021/04/09 08:47:40;;;;;;;9.63;7.85;;;10.20;56.50;;;;;;4975715;28;20038;-57
2021/04/09 08:50:09;;;;;;;9.88;7.97;;;10.20;56.60;;;;;;4977124;28;20030;-56
2021/04/09 08:52:41;;;;;;;11.15;8.43;;;10.20;56.50;;;;;;4981173;28;20046;-56
2021/04/09 08:55:09;;;;;;;10.15;8.77;;;10.20;56.30;;;;;;4979035;28;20483;-57
2021/04/09 08:57:38;;;;;;;10.30;8.63;;;10.20;56.00;;;;;;4977632;28;20034;-56
2021/04/09 09:00:22;;;;;;;10.90;8.52;;;10.20;56.20;;;;;;4974223;28;20048;-57
2021/04/09 09:02:57;;;;;;;11.52;9.43;;;10.20;56.20;;;;;;4978034;28;20218;-57
2021/04/09 09:05:33;;;;;;;10.35;8.40;;;10.20;56.00;;;;;;4980218;28;20037;-56
2021/04/09 09:08:02;;;;;;;9.68;8.25;;;10.20;56.00;;;;;;4974930;28;20038;-56
2021/04/09 09:10:31;;;;;;;11.30;8.32;;;10.20;56.00;;;;;;4982383;28;20027;-57
2021/04/09 09:13:06;;;;;;;10.48;8.55;;;10.20;56.00;;;;;;4975807;28;20049;-56
2021/04/09 09:15:44;;;;;;;9.98;8.48;;;10.20;55.90;;;;;;4980488;28;20166;-57
2021/04/09 09:18:22;;;;;;;9.77;8.20;;;10.20;55.80;;;;;;4980503;28;20048;-56
2021/04/09 09:21:11;;;;;;;10.10;8.27;;;10.20;55.70;;;;;;4978010;28;20035;-54
2021/04/09 09:23:44;;;;;;;10.90;7.97;;;10.20;55.80;;;;;;4977706;28;20069;-57
2021/04/09 09:26:31;;;;;;;9.65;7.80;;;10.20;56.50;;;;;;4975975;28;20030;-58
2021/04/09 09:29:15;;;;;;;9.50;8.48;;;10.20;55.70;;;;;;4978145;28;20065;-56
2021/04/09 09:31:48;;;;;;;9.63;8.30;;;10.20;55.80;;;;;;4980730;28;20038;-57
2021/04/09 09:34:17;;;;;;;10.63;9.13;;;10.20;55.80;;;;;;4978233;28;20082;-57
2021/04/09 09:37:12;;;;;;;9.68;7.95;;;10.20;56.50;;;;;;4974092;28;20026;-56
2021/04/09 09:40:02;;;;;;;9.77;8.32;;;10.30;55.70;;;;;;4980382;28;20038;-56
2021/04/09 09:42:30;;;;;;;9.93;8.10;;;10.30;55.70;;;;;;4980825;28;20049;-56
2021/04/09 09:44:56;;;;;;;10.40;8.50;;;10.40;55.50;;;;;;4971883;28;20027;-56
2021/04/09 09:47:41;;;;;;;10.95;8.30;;;10.40;55.30;;;;;;4977052;28;20030;-56
2021/04/09 09:50:08;;;;;;;9.68;8.10;;;10.50;55.30;;;;;;4976601;28;20077;-54
2021/04/09 09:52:55;;;;;;;10.00;7.97;;;10.60;55.40;;;;;;4977291;28;20041;-56
2021/04/09 09:55:45;;;;;;;9.77;7.20;;;10.70;55.10;;;;;;4979192;28;20117;-56
2021/04/09 09:58:11;;;;;;;9.82;8.55;;;10.90;55.20;;;;;;4976551;28;20038;-56
2021/04/09 10:00:41;;;;;;;10.98;8.32;;;11.00;55.00;;;;;;4976564;28;20061;-53
2021/04/09 10:03:10;;;;;;;9.77;8.38;;;11.10;54.90;;;;;;4978439;28;20070;-55
2021/04/09 10:05:37;;;;;;;11.93;8.43;;;11.10;54.60;;;;;;4973835;28;20088;-58
2021/04/09 10:08:07;;;;;;;12.63;8.77;;;11.20;54.40;;;;;;4973289;28;20081;-55
2021/04/09 10:10:43;;;;;;;11.07;9.32;;;11.30;54.40;;;;;;4975856;28;20113;-56
2021/04/09 10:13:25;;;;;;;11.38;8.93;;;11.30;54.20;;;;;;4978878;28;20030;-56
2021/04/09 10:15:53;;;;;;;10.95;9.07;;;11.40;54.20;;;;;;4979246;28;20038;-54
2021/04/09 10:18:20;;;;;;;11.52;9.40;;;11.40;54.30;;;;;;4975885;28;20038;-55
2021/04/09 10:20:50;;;;;;;10.38;8.77;;;11.50;54.40;;;;;;4985084;28;20084;-56
2021/04/09 10:23:21;;;;;;;10.13;8.63;;;11.50;54.20;;;;;;4979671;28;20030;-55
2021/04/09 10:25:52;;;;;;;10.88;8.50;;;11.60;54.20;;;;;;4984892;28;20453;-53
2021/04/09 10:28:18;;;;;;;12.50;8.90;;;11.60;54.20;;;;;;4978241;28;20153;-56
2021/04/09 10:30:43;;;;;;;11.82;8.30;;;11.70;54.00;;;;;;4982701;28;20078;-55
2021/04/09 10:33:09;;;;;;;9.48;7.60;;;11.70;54.00;;;;;;4977107;28;20072;-56
2021/04/09 10:35:35;;;;;;;9.38;8.05;;;11.80;53.60;;;;;;4981181;28;20038;-55
2021/04/09 10:38:15;;;;;;;9.30;7.90;;;11.90;53.40;;;;;;4981671;28;20040;-56
2021/04/09 10:40:55;;;;;;;8.95;7.78;;;11.90;53.30;;;;;;4976780;28;21217;-58
2021/04/09 10:43:32;;;;;;;9.98;7.38;;;12.00;53.30;;;;;;4993441;28;20121;-55
2021/04/09 10:46:14;;;;;;;9.65;7.80;;;12.00;53.20;;;;;;4978544;28;20027;-52
2021/04/09 10:55:13;;;;;;;8.63;6.43;;;12.00;53.00;;;;;;5034390;28;20012;-54
2021/04/09 10:57:39;;;;;;;10.10;7.43;;;12.00;52.90;;;;;;5010881;28;20120;-56
2021/04/09 11:00:06;;;;;;;9.05;7.35;;;12.00;52.60;;;;;;5013007;28;20026;-52
2021/04/09 11:02:35;;;;;;;8.52;6.85;;;12.00;52.60;;;;;;5006632;28;20048;-56
2021/04/09 11:05:02;;;;;;;8.15;6.63;;;11.90;52.50;;;;;;5013808;28;20486;-55
2021/04/09 11:07:47;;;;;;;8.48;7.10;;;11.90;52.60;;;;;;5007955;28;20033;-56
2021/04/09 11:10:35;;;;;;;8.68;7.20;;;11.80;52.60;;;;;;5019321;28;20053;-56
2021/04/09 11:13:02;;;;;;;8.30;7.05;;;11.70;52.80;;;;;;5011271;28;20091;-56
2021/04/09 11:15:46;;;;;;;7.85;6.97;;;11.70;52.60;;;;;;5001058;28;20030;-55
2021/04/09 11:18:16;;;;;;;9.60;7.15;;;11.70;52.40;;;;;;5005104;28;20033;-55
2021/04/09 11:20:44;;;;;;;7.43;6.35;;;11.60;52.20;;;;;;5009186;28;20159;-56
2021/04/09 11:23:13;;;;;;;8.02;6.72;;;11.70;52.00;;;;;;5011675;28;20461;-55
2021/04/09 11:25:45;;;;;;;10.02;7.03;;;11.60;51.70;;;;;;5010974;28;20538;-54
2021/04/09 11:28:29;;;;;;;7.38;6.57;;;11.60;51.70;;;;;;5007190;28;20044;-56
2021/04/09 11:30:58;;;;;;;7.82;6.68;;;11.60;51.30;;;;;;5009286;28;20084;-55
2021/04/09 11:33:35;;;;;;;8.48;7.00;;;11.60;51.50;;;;;;5011570;28;20034;-56
2021/04/09 11:36:21;;;;;;;7.88;6.80;;;11.60;51.20;;;;;;5015964;28;20030;-55
2021/04/09 11:39:04;;;;;;;8.52;7.63;;;11.50;51.10;;;;;;5014487;28;20072;-55
2021/04/09 11:41:31;;;;;;;8.25;7.25;;;11.50;51.20;;;;;;5016760;28;20026;-56
2021/04/09 11:44:20;;;;;;;8.80;7.72;;;11.50;51.40;;;;;;5022804;28;20034;-56
2021/04/09 11:46:46;;;;;;;9.88;7.63;;;11.50;51.50;;;;;;5015973;28;20373;-55
2021/04/09 11:49:12;;;;;;;7.47;6.55;;;11.40;51.60;;;;;;5019722;28;20029;-56
2021/04/09 11:51:37;;;;;;;9.02;7.18;;;11.40;51.50;;;;;;5017845;28;20060;-54
2021/04/09 11:54:04;;;;;;;9.02;7.38;;;11.40;51.30;;;;;;5014373;28;20040;-55
2021/04/09 11:56:41;;;;;;;10.30;7.72;;;11.40;51.30;;;;;;5023745;28;20115;-55
2021/04/09 11:59:20;;;;;;;8.45;7.10;;;11.40;51.50;;;;;;5018195;28;20049;-56
2021/04/09 12:01:47;;;;;;;7.70;6.68;;;11.40;51.30;;;;;;5007705;28;20033;-54
2021/04/09 12:04:39;;;;;;;9.00;7.38;;;11.30;51.00;;;;;;5020042;28;21602;-52
2021/04/09 12:07:09;;;;;;;;;;;11.30;50.80;;;;;;5021843;28;20030;-54
2021/04/09 12:09:35;;;;;;;7.95;6.43;;;11.20;51.00;;;;;;5021042;28;19955;-52
2021/04/09 12:12:01;;;;;;;9.10;6.68;;;11.30;51.20;;;;;;5019937;28;20037;-55
2021/04/09 12:14:45;;;;;;;7.82;7.03;;;11.20;51.10;;;;;;5024307;28;20419;-55
2021/04/09 12:17:13;;;;;;;9.30;7.57;;;11.20;51.00;;;;;;5019794;28;20037;-54
2021/04/09 12:19:39;;;;;;;10.25;7.55;;;11.30;51.30;;;;;;5027265;28;20035;-55
2021/04/09 12:22:06;;;;;;;7.03;6.30;;;11.30;51.20;;;;;;5018710;28;20040;-55
2021/04/09 12:24:32;;;;;;;7.55;6.72;;;11.30;51.20;;;;;;5024176;28;20457;-53
2021/04/09 12:26:58;;;;;;;7.97;7.10;;;11.30;51.00;;;;;;5022081;28;20032;-57
2021/04/09 12:29:23;;;;;;;8.30;7.43;;;11.40;50.90;;;;;;5030188;28;20033;-54
2021/04/09 12:31:49;;;;;;;8.43;7.18;;;11.40;50.90;;;;;;5020403;28;20125;-54
2021/04/09 12:34:19;;;;;;;8.07;6.80;;;11.40;50.80;;;;;;5021113;28;20091;-56
2021/04/09 12:36:46;;;;;;;8.82;7.38;;;11.40;50.60;;;;;;5021657;28;20030;-56
2021/04/09 12:39:12;;;;;;;7.78;6.88;;;11.40;50.60;;;;;;5019579;28;20038;-56
2021/04/09 12:41:38;;;;;;;7.47;6.68;;;11.40;50.50;;;;;;5021365;28;20116;-55
2021/04/09 12:44:05;;;;;;;8.27;7.30;;;11.50;50.60;;;;;;5020419;28;20481;-55
2021/04/09 12:46:33;;;;;;;9.20;8.10;;;11.50;50.50;;;;;;5020462;28;20108;-55
2021/04/09 12:48:59;;;;;;;7.85;7.05;;;11.50;50.20;;;;;;5020194;28;20108;-55
2021/04/09 12:51:26;;;;;;;7.68;6.75;;;11.50;50.20;;;;;;5019310;28;20105;-56
2021/04/09 12:53:52;;;;;;;9.80;7.30;;;11.60;50.20;;;;;;5019769;28;20029;-54
2021/04/09 12:56:19;;;;;;;7.57;6.65;;;11.60;50.00;;;;;;5015495;28;20052;-58
2021/04/09 12:58:45;;;;;;;8.10;6.68;;;11.70;49.90;;;;;;5019817;28;20690;-59
2021/04/09 13:01:11;;;;;;;7.22;6.50;;;11.80;49.60;;;;;;5021369;28;20026;-58
2021/04/09 13:03:37;;;;;;;6.95;6.03;;;11.80;49.30;;;;;;5013498;28;20208;-57